Marty, South Dakota
Current Conditions -  °F | °C
As of 10:55 AM on Monday 22 Dec 2014 (Local Time) from KONL Reporting Station
Overcast Overcast  
Wind Chill: 31°   Ceiling: 2200
Heat Index: 40°   Visibility: 10mi
Dew Point: 37°   Wind: 17mph
Humidity: 92%   Direction: 300°WNW
Pressure: 29.48"   Gusts: NA
Location:  42.99°N, 98.43°W
Report Text: KONL 221655Z AUTO 30015KT 10SM BKN022 OVC030 04/03 A2948 RMK AO2 T00420030
Loading
Personal Weather Stations






























Interactive Weather Map New forecast layout! Learn more

10-Day Weather Forecast

Advertisements
Track Severe Weather on mobile